sensor_id;sensor_type;location;lat;lon;timestamp;P1;durP1;ratioP1;P2;durP2;ratioP2
48363;SDS011;34170;54.364;18.582;2023-02-04T00:00:05;3.20;;;0.52;;
48363;SDS011;34170;54.364;18.582;2023-02-04T00:02:53;1.80;;;0.40;;
48363;SDS011;34170;54.364;18.582;2023-02-04T00:05:21;4.00;;;0.95;;
48363;SDS011;34170;54.364;18.582;2023-02-04T00:07:48;2.38;;;0.52;;
48363;SDS011;34170;54.364;18.582;2023-02-04T00:10:16;3.08;;;0.43;;
48363;SDS011;34170;54.364;18.582;2023-02-04T00:12:44;5.65;;;0.40;;
48363;SDS011;34170;54.364;18.582;2023-02-04T00:15:12;2.17;;;0.38;;
48363;SDS011;34170;54.364;18.582;2023-02-04T00:17:39;2.00;;;0.32;;
48363;SDS011;34170;54.364;18.582;2023-02-04T00:20:07;2.75;;;0.30;;
48363;SDS011;34170;54.364;18.582;2023-02-04T00:22:34;1.75;;;0.20;;
48363;SDS011;34170;54.364;18.582;2023-02-04T00:25:02;3.33;;;0.63;;
48363;SDS011;34170;54.364;18.582;2023-02-04T00:27:29;1.83;;;0.30;;
48363;SDS011;34170;54.364;18.582;2023-02-04T00:29:57;1.73;;;0.40;;
48363;SDS011;34170;54.364;18.582;2023-02-04T00:32:24;2.15;;;0.70;;
48363;SDS011;34170;54.364;18.582;2023-02-04T00:34:53;0.77;;;0.38;;
48363;SDS011;34170;54.364;18.582;2023-02-04T00:37:21;2.50;;;0.38;;
48363;SDS011;34170;54.364;18.582;2023-02-04T00:39:48;1.30;;;0.20;;
48363;SDS011;34170;54.364;18.582;2023-02-04T00:42:16;3.45;;;0.45;;
48363;SDS011;34170;54.364;18.582;2023-02-04T00:44:43;3.75;;;0.65;;
48363;SDS011;34170;54.364;18.582;2023-02-04T00:47:11;1.48;;;0.20;;
48363;SDS011;34170;54.364;18.582;2023-02-04T00:49:38;2.40;;;0.47;;
48363;SDS011;34170;54.364;18.582;2023-02-04T00:52:06;7.05;;;0.45;;
48363;SDS011;34170;54.364;18.582;2023-02-04T00:54:34;2.83;;;0.30;;
48363;SDS011;34170;54.364;18.582;2023-02-04T00:57:01;2.15;;;0.30;;
48363;SDS011;34170;54.364;18.582;2023-02-04T00:59:28;0.60;;;0.20;;
48363;SDS011;34170;54.364;18.582;2023-02-04T01:01:56;1.48;;;0.22;;
48363;SDS011;34170;54.364;18.582;2023-02-04T01:04:23;1.00;;;0.20;;
48363;SDS011;34170;54.364;18.582;2023-02-04T01:06:51;0.50;;;0.10;;
48363;SDS011;34170;54.364;18.582;2023-02-04T01:09:19;2.05;;;0.28;;
48363;SDS011;34170;54.364;18.582;2023-02-04T01:11:46;1.60;;;0.13;;
48363;SDS011;34170;54.364;18.582;2023-02-04T01:14:14;1.48;;;0.20;;
48363;SDS011;34170;54.364;18.582;2023-02-04T01:16:42;0.88;;;0.10;;
48363;SDS011;34170;54.364;18.582;2023-02-04T01:19:09;0.68;;;0.10;;
48363;SDS011;34170;54.364;18.582;2023-02-04T01:21:37;1.17;;;0.20;;
48363;SDS011;34170;54.364;18.582;2023-02-04T01:24:07;2.42;;;0.20;;
48363;SDS011;34170;54.364;18.582;2023-02-04T01:26:54;1.10;;;0.10;;
48363;SDS011;34170;54.364;18.582;2023-02-04T01:29:21;1.23;;;0.10;;
48363;SDS011;34170;54.364;18.582;2023-02-04T01:31:49;0.50;;;0.10;;
48363;SDS011;34170;54.364;18.582;2023-02-04T01:34:17;3.85;;;0.28;;
48363;SDS011;34170;54.364;18.582;2023-02-04T01:36:44;1.13;;;0.30;;
48363;SDS011;34170;54.364;18.582;2023-02-04T01:39:12;1.95;;;0.10;;
48363;SDS011;34170;54.364;18.582;2023-02-04T01:41:39;0.47;;;0.10;;
48363;SDS011;34170;54.364;18.582;2023-02-04T01:44:07;0.95;;;0.30;;
48363;SDS011;34170;54.364;18.582;2023-02-04T01:46:34;0.98;;;0.13;;
48363;SDS011;34170;54.364;18.582;2023-02-04T01:49:03;1.60;;;0.20;;
48363;SDS011;34170;54.364;18.582;2023-02-04T01:51:32;0.90;;;0.10;;
48363;SDS011;34170;54.364;18.582;2023-02-04T01:54:00;0.80;;;0.10;;
48363;SDS011;34170;54.364;18.582;2023-02-04T01:56:30;1.05;;;0.10;;
48363;SDS011;34170;54.364;18.582;2023-02-04T01:58:58;1.65;;;0.20;;
48363;SDS011;34170;54.364;18.582;2023-02-04T02:06:41;4.97;;;0.55;;
48363;SDS011;34170;54.364;18.582;2023-02-04T02:09:13;0.50;;;0.00;;
48363;SDS011;34170;54.364;18.582;2023-02-04T02:11:42;1.48;;;0.10;;
48363;SDS011;34170;54.364;18.582;2023-02-04T02:14:10;0.68;;;0.00;;
48363;SDS011;34170;54.364;18.582;2023-02-04T02:16:38;0.90;;;0.00;;
48363;SDS011;34170;54.364;18.582;2023-02-04T02:19:06;2.20;;;0.10;;
48363;SDS011;34170;54.364;18.582;2023-02-04T02:21:39;2.05;;;0.35;;
48363;SDS011;34170;54.364;18.582;2023-02-04T02:24:25;1.38;;;0.10;;
48363;SDS011;34170;54.364;18.582;2023-02-04T02:26:57;1.42;;;0.00;;
48363;SDS011;34170;54.364;18.582;2023-02-04T02:29:28;1.45;;;0.28;;
48363;SDS011;34170;54.364;18.582;2023-02-04T02:31:55;1.52;;;0.10;;
48363;SDS011;34170;54.364;18.582;2023-02-04T02:34:25;1.83;;;0.10;;
48363;SDS011;34170;54.364;18.582;2023-02-04T02:36:54;2.10;;;0.38;;
48363;SDS011;34170;54.364;18.582;2023-02-04T02:39:23;3.85;;;0.20;;
48363;SDS011;34170;54.364;18.582;2023-02-04T02:41:51;1.27;;;0.15;;
48363;SDS011;34170;54.364;18.582;2023-02-04T02:44:21;1.67;;;0.10;;
48363;SDS011;34170;54.364;18.582;2023-02-04T02:46:49;0.95;;;0.10;;
48363;SDS011;34170;54.364;18.582;2023-02-04T02:49:18;3.75;;;0.10;;
48363;SDS011;34170;54.364;18.582;2023-02-04T02:51:46;4.25;;;0.30;;
48363;SDS011;34170;54.364;18.582;2023-02-04T02:54:22;1.15;;;0.32;;
48363;SDS011;34170;54.364;18.582;2023-02-04T02:56:54;1.98;;;0.22;;
48363;SDS011;34170;54.364;18.582;2023-02-04T02:59:24;1.40;;;0.30;;
48363;SDS011;34170;54.364;18.582;2023-02-04T03:01:52;0.38;;;0.15;;
48363;SDS011;34170;54.364;18.582;2023-02-04T03:04:30;1.00;;;0.10;;
48363;SDS011;34170;54.364;18.582;2023-02-04T03:07:01;3.80;;;0.30;;
48363;SDS011;34170;54.364;18.582;2023-02-04T03:09:29;5.47;;;0.52;;
48363;SDS011;34170;54.364;18.582;2023-02-04T03:11:57;3.47;;;1.17;;
48363;SDS011;34170;54.364;18.582;2023-02-04T03:14:24;1.52;;;0.20;;
48363;SDS011;34170;54.364;18.582;2023-02-04T03:16:53;0.45;;;0.10;;
48363;SDS011;34170;54.364;18.582;2023-02-04T03:19:22;0.95;;;0.08;;
48363;SDS011;34170;54.364;18.582;2023-02-04T03:21:52;3.60;;;0.00;;
48363;SDS011;34170;54.364;18.582;2023-02-04T03:24:21;1.65;;;0.00;;
48363;SDS011;34170;54.364;18.582;2023-02-04T03:26:50;0.30;;;0.00;;
48363;SDS011;34170;54.364;18.582;2023-02-04T03:29:18;0.55;;;0.10;;
48363;SDS011;34170;54.364;18.582;2023-02-04T03:31:45;1.77;;;0.00;;
48363;SDS011;34170;54.364;18.582;2023-02-04T03:34:13;3.25;;;0.10;;
48363;SDS011;34170;54.364;18.582;2023-02-04T03:36:40;2.50;;;0.10;;
48363;SDS011;34170;54.364;18.582;2023-02-04T03:39:08;1.50;;;0.15;;
48363;SDS011;34170;54.364;18.582;2023-02-04T03:41:35;1.27;;;0.20;;
48363;SDS011;34170;54.364;18.582;2023-02-04T03:44:03;2.55;;;0.52;;
48363;SDS011;34170;54.364;18.582;2023-02-04T03:46:30;2.15;;;0.70;;
48363;SDS011;34170;54.364;18.582;2023-02-04T03:48:58;3.08;;;0.30;;
48363;SDS011;34170;54.364;18.582;2023-02-04T03:51:25;1.98;;;0.20;;
48363;SDS011;34170;54.364;18.582;2023-02-04T03:53:53;1.50;;;0.13;;
48363;SDS011;34170;54.364;18.582;2023-02-04T03:56:20;1.60;;;0.10;;
48363;SDS011;34170;54.364;18.582;2023-02-04T03:58:48;0.95;;;0.10;;
48363;SDS011;34170;54.364;18.582;2023-02-04T04:01:15;1.95;;;0.30;;
48363;SDS011;34170;54.364;18.582;2023-02-04T04:03:43;1.20;;;0.30;;
48363;SDS011;34170;54.364;18.582;2023-02-04T04:06:10;4.30;;;0.32;;
48363;SDS011;34170;54.364;18.582;2023-02-04T04:08:38;3.63;;;0.50;;
48363;SDS011;34170;54.364;18.582;2023-02-04T04:11:05;2.95;;;0.50;;
48363;SDS011;34170;54.364;18.582;2023-02-04T04:13:33;4.30;;;0.52;;
48363;SDS011;34170;54.364;18.582;2023-02-04T04:16:00;5.70;;;2.35;;
48363;SDS011;34170;54.364;18.582;2023-02-04T04:18:30;4.20;;;0.40;;
48363;SDS011;34170;54.364;18.582;2023-02-04T04:20:58;3.55;;;0.52;;
48363;SDS011;34170;54.364;18.582;2023-02-04T04:23:26;2.70;;;0.35;;
48363;SDS011;34170;54.364;18.582;2023-02-04T04:25:53;3.97;;;0.40;;
48363;SDS011;34170;54.364;18.582;2023-02-04T04:28:21;2.45;;;0.50;;
48363;SDS011;34170;54.364;18.582;2023-02-04T04:30:48;2.88;;;0.50;;
48363;SDS011;34170;54.364;18.582;2023-02-04T04:33:16;1.88;;;0.38;;
48363;SDS011;34170;54.364;18.582;2023-02-04T04:35:43;1.75;;;0.55;;
48363;SDS011;34170;54.364;18.582;2023-02-04T04:38:11;2.05;;;0.35;;
48363;SDS011;34170;54.364;18.582;2023-02-04T04:40:38;1.77;;;0.30;;
48363;SDS011;34170;54.364;18.582;2023-02-04T04:43:05;3.05;;;0.52;;
48363;SDS011;34170;54.364;18.582;2023-02-04T04:45:33;3.78;;;0.60;;
48363;SDS011;34170;54.364;18.582;2023-02-04T04:48:00;4.13;;;0.60;;
48363;SDS011;34170;54.364;18.582;2023-02-04T04:50:27;1.42;;;0.30;;
48363;SDS011;34170;54.364;18.582;2023-02-04T04:52:55;3.38;;;0.70;;
48363;SDS011;34170;54.364;18.582;2023-02-04T04:55:23;3.67;;;0.50;;
48363;SDS011;34170;54.364;18.582;2023-02-04T04:57:50;3.78;;;0.60;;
48363;SDS011;34170;54.364;18.582;2023-02-04T05:00:18;6.95;;;0.68;;
48363;SDS011;34170;54.364;18.582;2023-02-04T05:02:47;4.25;;;0.60;;
48363;SDS011;34170;54.364;18.582;2023-02-04T05:05:14;2.65;;;0.52;;
48363;SDS011;34170;54.364;18.582;2023-02-04T05:07:42;1.58;;;0.25;;
48363;SDS011;34170;54.364;18.582;2023-02-04T05:10:09;2.08;;;0.47;;
48363;SDS011;34170;54.364;18.582;2023-02-04T05:12:37;1.73;;;0.20;;
48363;SDS011;34170;54.364;18.582;2023-02-04T05:15:04;1.67;;;0.30;;
48363;SDS011;34170;54.364;18.582;2023-02-04T05:17:32;2.28;;;0.70;;
48363;SDS011;34170;54.364;18.582;2023-02-04T05:19:59;1.40;;;0.50;;
48363;SDS011;34170;54.364;18.582;2023-02-04T05:22:27;1.10;;;0.30;;
48363;SDS011;34170;54.364;18.582;2023-02-04T05:24:55;2.40;;;0.60;;
48363;SDS011;34170;54.364;18.582;2023-02-04T05:27:22;2.58;;;0.35;;
48363;SDS011;34170;54.364;18.582;2023-02-04T05:29:49;2.40;;;0.40;;
48363;SDS011;34170;54.364;18.582;2023-02-04T05:32:17;4.35;;;0.30;;
48363;SDS011;34170;54.364;18.582;2023-02-04T05:34:44;3.83;;;0.30;;
48363;SDS011;34170;54.364;18.582;2023-02-04T05:37:12;3.05;;;0.60;;
48363;SDS011;34170;54.364;18.582;2023-02-04T05:39:41;2.17;;;0.35;;
48363;SDS011;34170;54.364;18.582;2023-02-04T05:42:09;1.50;;;0.40;;
48363;SDS011;34170;54.364;18.582;2023-02-04T05:44:36;2.50;;;0.70;;
48363;SDS011;34170;54.364;18.582;2023-02-04T05:47:04;2.17;;;0.47;;
48363;SDS011;34170;54.364;18.582;2023-02-04T05:49:31;1.35;;;0.50;;
48363;SDS011;34170;54.364;18.582;2023-02-04T05:51:58;5.57;;;0.60;;
48363;SDS011;34170;54.364;18.582;2023-02-04T05:54:26;1.23;;;0.50;;
48363;SDS011;34170;54.364;18.582;2023-02-04T05:56:53;4.50;;;0.70;;
48363;SDS011;34170;54.364;18.582;2023-02-04T05:59:20;1.58;;;0.50;;
48363;SDS011;34170;54.364;18.582;2023-02-04T06:01:48;1.63;;;0.60;;
48363;SDS011;34170;54.364;18.582;2023-02-04T06:04:15;4.13;;;0.73;;
48363;SDS011;34170;54.364;18.582;2023-02-04T06:06:44;2.20;;;0.80;;
48363;SDS011;34170;54.364;18.582;2023-02-04T06:09:11;1.67;;;0.50;;
48363;SDS011;34170;54.364;18.582;2023-02-04T06:11:39;2.55;;;0.60;;
48363;SDS011;34170;54.364;18.582;2023-02-04T06:14:08;2.72;;;1.00;;
48363;SDS011;34170;54.364;18.582;2023-02-04T06:16:36;3.85;;;0.88;;
48363;SDS011;34170;54.364;18.582;2023-02-04T06:19:04;2.78;;;0.88;;
48363;SDS011;34170;54.364;18.582;2023-02-04T06:21:31;3.75;;;0.63;;
48363;SDS011;34170;54.364;18.582;2023-02-04T06:23:59;1.85;;;0.73;;
48363;SDS011;34170;54.364;18.582;2023-02-04T06:26:26;3.22;;;0.90;;
48363;SDS011;34170;54.364;18.582;2023-02-04T06:28:54;3.33;;;0.70;;
48363;SDS011;34170;54.364;18.582;2023-02-04T06:31:21;3.15;;;0.85;;
48363;SDS011;34170;54.364;18.582;2023-02-04T06:33:48;4.50;;;0.55;;
48363;SDS011;34170;54.364;18.582;2023-02-04T06:36:16;1.48;;;0.68;;
48363;SDS011;34170;54.364;18.582;2023-02-04T06:38:43;2.53;;;0.77;;
48363;SDS011;34170;54.364;18.582;2023-02-04T06:41:11;2.45;;;0.68;;
48363;SDS011;34170;54.364;18.582;2023-02-04T06:43:38;1.83;;;0.60;;
48363;SDS011;34170;54.364;18.582;2023-02-04T06:46:05;1.58;;;0.65;;
48363;SDS011;34170;54.364;18.582;2023-02-04T06:48:33;4.88;;;0.70;;
48363;SDS011;34170;54.364;18.582;2023-02-04T06:51:00;2.78;;;0.40;;
48363;SDS011;34170;54.364;18.582;2023-02-04T06:53:28;2.60;;;0.70;;
48363;SDS011;34170;54.364;18.582;2023-02-04T06:55:55;3.53;;;0.50;;
48363;SDS011;34170;54.364;18.582;2023-02-04T06:58:22;2.03;;;0.43;;
48363;SDS011;34170;54.364;18.582;2023-02-04T07:00:50;7.32;;;1.02;;
48363;SDS011;34170;54.364;18.582;2023-02-04T07:03:17;2.40;;;0.73;;
48363;SDS011;34170;54.364;18.582;2023-02-04T07:05:45;3.80;;;0.52;;
48363;SDS011;34170;54.364;18.582;2023-02-04T07:08:12;3.35;;;0.50;;
48363;SDS011;34170;54.364;18.582;2023-02-04T07:10:40;5.40;;;1.92;;
48363;SDS011;34170;54.364;18.582;2023-02-04T07:13:07;3.45;;;0.30;;
48363;SDS011;34170;54.364;18.582;2023-02-04T07:15:34;1.58;;;0.35;;
48363;SDS011;34170;54.364;18.582;2023-02-04T07:18:02;2.08;;;0.30;;
48363;SDS011;34170;54.364;18.582;2023-02-04T07:20:29;4.00;;;0.30;;
48363;SDS011;34170;54.364;18.582;2023-02-04T07:22:57;2.97;;;0.38;;
48363;SDS011;34170;54.364;18.582;2023-02-04T07:25:25;1.83;;;0.30;;
48363;SDS011;34170;54.364;18.582;2023-02-04T07:27:52;2.10;;;0.28;;
48363;SDS011;34170;54.364;18.582;2023-02-04T07:30:20;2.05;;;0.57;;
48363;SDS011;34170;54.364;18.582;2023-02-04T07:32:47;2.95;;;0.70;;
48363;SDS011;34170;54.364;18.582;2023-02-04T07:35:15;2.50;;;0.65;;
48363;SDS011;34170;54.364;18.582;2023-02-04T07:37:43;3.28;;;0.70;;
48363;SDS011;34170;54.364;18.582;2023-02-04T07:40:11;2.58;;;0.30;;
48363;SDS011;34170;54.364;18.582;2023-02-04T07:42:38;4.78;;;0.63;;
48363;SDS011;34170;54.364;18.582;2023-02-04T07:45:11;4.00;;;0.40;;
48363;SDS011;34170;54.364;18.582;2023-02-04T07:47:38;1.33;;;0.43;;
48363;SDS011;34170;54.364;18.582;2023-02-04T07:50:06;0.75;;;0.28;;
48363;SDS011;34170;54.364;18.582;2023-02-04T07:52:33;0.85;;;0.30;;
48363;SDS011;34170;54.364;18.582;2023-02-04T07:55:01;2.28;;;0.57;;
48363;SDS011;34170;54.364;18.582;2023-02-04T07:57:28;1.98;;;0.57;;
48363;SDS011;34170;54.364;18.582;2023-02-04T07:59:56;3.22;;;0.60;;
48363;SDS011;34170;54.364;18.582;2023-02-04T08:02:23;3.53;;;0.68;;
48363;SDS011;34170;54.364;18.582;2023-02-04T08:04:51;1.60;;;0.63;;
48363;SDS011;34170;54.364;18.582;2023-02-04T08:07:18;2.60;;;0.73;;
48363;SDS011;34170;54.364;18.582;2023-02-04T08:09:46;3.50;;;1.13;;
48363;SDS011;34170;54.364;18.582;2023-02-04T08:12:13;2.65;;;0.82;;
48363;SDS011;34170;54.364;18.582;2023-02-04T08:14:41;2.30;;;0.80;;
48363;SDS011;34170;54.364;18.582;2023-02-04T08:17:08;4.10;;;2.00;;
48363;SDS011;34170;54.364;18.582;2023-02-04T08:19:36;2.45;;;1.10;;
48363;SDS011;34170;54.364;18.582;2023-02-04T08:22:03;3.45;;;0.70;;
48363;SDS011;34170;54.364;18.582;2023-02-04T08:24:30;2.95;;;0.90;;
48363;SDS011;34170;54.364;18.582;2023-02-04T08:26:58;2.83;;;0.77;;
48363;SDS011;34170;54.364;18.582;2023-02-04T08:29:25;5.38;;;0.73;;
48363;SDS011;34170;54.364;18.582;2023-02-04T08:31:53;3.00;;;0.70;;
48363;SDS011;34170;54.364;18.582;2023-02-04T08:34:20;4.90;;;1.05;;
48363;SDS011;34170;54.364;18.582;2023-02-04T08:36:48;3.05;;;0.70;;
48363;SDS011;34170;54.364;18.582;2023-02-04T08:39:15;2.92;;;0.60;;
48363;SDS011;34170;54.364;18.582;2023-02-04T08:41:43;3.13;;;0.85;;
48363;SDS011;34170;54.364;18.582;2023-02-04T08:44:10;3.03;;;0.68;;
48363;SDS011;34170;54.364;18.582;2023-02-04T08:46:37;3.83;;;0.70;;
48363;SDS011;34170;54.364;18.582;2023-02-04T08:49:05;2.05;;;1.35;;
48363;SDS011;34170;54.364;18.582;2023-02-04T08:51:32;4.80;;;0.90;;
48363;SDS011;34170;54.364;18.582;2023-02-04T08:54:00;1.88;;;0.70;;
48363;SDS011;34170;54.364;18.582;2023-02-04T08:56:27;4.30;;;0.90;;
48363;SDS011;34170;54.364;18.582;2023-02-04T08:58:55;1.50;;;0.93;;
48363;SDS011;34170;54.364;18.582;2023-02-04T09:01:22;2.28;;;0.93;;
48363;SDS011;34170;54.364;18.582;2023-02-04T09:03:50;2.25;;;0.90;;
48363;SDS011;34170;54.364;18.582;2023-02-04T09:06:17;2.72;;;1.10;;
48363;SDS011;34170;54.364;18.582;2023-02-04T09:08:45;1.90;;;0.80;;
48363;SDS011;34170;54.364;18.582;2023-02-04T09:11:12;2.85;;;1.05;;
48363;SDS011;34170;54.364;18.582;2023-02-04T09:13:41;1.67;;;0.50;;
48363;SDS011;34170;54.364;18.582;2023-02-04T09:16:08;3.05;;;0.77;;
48363;SDS011;34170;54.364;18.582;2023-02-04T09:18:36;1.65;;;0.50;;
48363;SDS011;34170;54.364;18.582;2023-02-04T09:21:04;7.82;;;0.95;;
48363;SDS011;34170;54.364;18.582;2023-02-04T09:23:32;2.72;;;1.67;;
48363;SDS011;34170;54.364;18.582;2023-02-04T09:25:59;2.55;;;0.52;;
48363;SDS011;34170;54.364;18.582;2023-02-04T09:28:27;2.85;;;0.90;;
48363;SDS011;34170;54.364;18.582;2023-02-04T09:30:55;3.10;;;0.47;;
48363;SDS011;34170;54.364;18.582;2023-02-04T09:33:22;3.00;;;0.50;;
48363;SDS011;34170;54.364;18.582;2023-02-04T09:35:50;4.03;;;0.90;;
48363;SDS011;34170;54.364;18.582;2023-02-04T09:38:17;2.65;;;0.52;;
48363;SDS011;34170;54.364;18.582;2023-02-04T09:40:46;3.53;;;1.00;;
48363;SDS011;34170;54.364;18.582;2023-02-04T09:43:19;2.72;;;0.60;;
48363;SDS011;34170;54.364;18.582;2023-02-04T09:45:51;2.42;;;0.80;;
48363;SDS011;34170;54.364;18.582;2023-02-04T09:48:21;1.75;;;0.60;;
48363;SDS011;34170;54.364;18.582;2023-02-04T09:50:49;4.07;;;0.70;;
48363;SDS011;34170;54.364;18.582;2023-02-04T09:53:19;1.35;;;0.45;;
48363;SDS011;34170;54.364;18.582;2023-02-04T09:55:49;5.57;;;0.30;;
48363;SDS011;34170;54.364;18.582;2023-02-04T09:58:18;1.70;;;0.52;;
48363;SDS011;34170;54.364;18.582;2023-02-04T10:00:51;2.22;;;0.40;;
48363;SDS011;34170;54.364;18.582;2023-02-04T10:03:24;1.60;;;0.47;;
48363;SDS011;34170;54.364;18.582;2023-02-04T10:05:51;1.98;;;0.95;;
48363;SDS011;34170;54.364;18.582;2023-02-04T10:08:20;4.00;;;0.82;;
48363;SDS011;34170;54.364;18.582;2023-02-04T10:10:53;3.00;;;0.68;;
48363;SDS011;34170;54.364;18.582;2023-02-04T10:13:31;4.75;;;0.70;;
48363;SDS011;34170;54.364;18.582;2023-02-04T10:16:02;3.95;;;0.52;;
48363;SDS011;34170;54.364;18.582;2023-02-04T10:18:36;3.28;;;0.82;;
48363;SDS011;34170;54.364;18.582;2023-02-04T10:23:37;0.93;;;0.35;;
48363;SDS011;34170;54.364;18.582;2023-02-04T10:26:04;1.83;;;0.60;;
48363;SDS011;34170;54.364;18.582;2023-02-04T10:28:33;2.80;;;0.73;;
48363;SDS011;34170;54.364;18.582;2023-02-04T10:31:01;3.08;;;0.75;;
48363;SDS011;34170;54.364;18.582;2023-02-04T10:33:29;3.15;;;0.95;;
48363;SDS011;34170;54.364;18.582;2023-02-04T10:35:57;1.95;;;0.60;;
48363;SDS011;34170;54.364;18.582;2023-02-04T10:38:25;1.95;;;0.70;;
48363;SDS011;34170;54.364;18.582;2023-02-04T10:40:59;2.83;;;0.40;;
48363;SDS011;34170;54.364;18.582;2023-02-04T10:43:28;2.70;;;0.40;;
48363;SDS011;34170;54.364;18.582;2023-02-04T10:46:03;4.60;;;0.80;;
48363;SDS011;34170;54.364;18.582;2023-02-04T10:48:38;1.48;;;0.38;;
48363;SDS011;34170;54.364;18.582;2023-02-04T10:51:08;4.22;;;1.08;;
48363;SDS011;34170;54.364;18.582;2023-02-04T10:56:25;3.03;;;0.95;;
48363;SDS011;34170;54.364;18.582;2023-02-04T10:58:52;3.10;;;1.13;;
48363;SDS011;34170;54.364;18.582;2023-02-04T11:01:20;4.80;;;1.20;;
48363;SDS011;34170;54.364;18.582;2023-02-04T11:03:47;2.17;;;0.75;;
48363;SDS011;34170;54.364;18.582;2023-02-04T11:06:21;2.55;;;1.05;;
48363;SDS011;34170;54.364;18.582;2023-02-04T11:08:51;2.60;;;1.02;;
48363;SDS011;34170;54.364;18.582;2023-02-04T11:11:24;2.83;;;0.70;;
48363;SDS011;34170;54.364;18.582;2023-02-04T11:16:30;1.35;;;0.55;;
48363;SDS011;34170;54.364;18.582;2023-02-04T11:19:02;4.15;;;0.60;;
48363;SDS011;34170;54.364;18.582;2023-02-04T11:26:34;3.08;;;0.73;;
48363;SDS011;34170;54.364;18.582;2023-02-04T11:39:27;2.15;;;0.70;;
48363;SDS011;34170;54.364;18.582;2023-02-04T11:42:00;5.38;;;1.10;;
48363;SDS011;34170;54.364;18.582;2023-02-04T11:44:27;5.40;;;0.88;;
48363;SDS011;34170;54.364;18.582;2023-02-04T11:46:55;2.53;;;1.08;;
48363;SDS011;34170;54.364;18.582;2023-02-04T11:49:25;6.07;;;1.13;;
48363;SDS011;34170;54.364;18.582;2023-02-04T11:52:03;1.80;;;0.73;;
48363;SDS011;34170;54.364;18.582;2023-02-04T11:54:35;2.88;;;0.88;;
48363;SDS011;34170;54.364;18.582;2023-02-04T11:57:02;5.07;;;1.08;;
48363;SDS011;34170;54.364;18.582;2023-02-04T11:59:30;3.13;;;0.90;;
48363;SDS011;34170;54.364;18.582;2023-02-04T12:02:14;2.00;;;0.20;;
48363;SDS011;34170;54.364;18.582;2023-02-04T12:04:54;6.00;;;0.38;;
48363;SDS011;34170;54.364;18.582;2023-02-04T12:07:24;1.42;;;0.50;;
48363;SDS011;34170;54.364;18.582;2023-02-04T12:09:54;4.13;;;0.68;;
48363;SDS011;34170;54.364;18.582;2023-02-04T12:12:27;1.83;;;0.60;;
48363;SDS011;34170;54.364;18.582;2023-02-04T12:14:57;5.05;;;0.70;;
48363;SDS011;34170;54.364;18.582;2023-02-04T12:17:27;2.80;;;0.77;;
48363;SDS011;34170;54.364;18.582;2023-02-04T12:19:55;3.63;;;0.70;;
48363;SDS011;34170;54.364;18.582;2023-02-04T12:22:22;2.28;;;0.68;;
48363;SDS011;34170;54.364;18.582;2023-02-04T12:24:50;3.30;;;0.40;;
48363;SDS011;34170;54.364;18.582;2023-02-04T12:27:18;4.57;;;0.47;;
48363;SDS011;34170;54.364;18.582;2023-02-04T12:29:45;2.42;;;1.17;;
48363;SDS011;34170;54.364;18.582;2023-02-04T12:32:13;2.17;;;0.63;;
48363;SDS011;34170;54.364;18.582;2023-02-04T12:34:40;2.80;;;0.60;;
48363;SDS011;34170;54.364;18.582;2023-02-04T12:37:08;1.83;;;0.68;;
48363;SDS011;34170;54.364;18.582;2023-02-04T12:39:35;5.80;;;0.93;;
48363;SDS011;34170;54.364;18.582;2023-02-04T12:42:03;6.97;;;0.80;;
48363;SDS011;34170;54.364;18.582;2023-02-04T12:44:30;5.93;;;0.70;;
48363;SDS011;34170;54.364;18.582;2023-02-04T12:46:58;2.65;;;0.50;;
48363;SDS011;34170;54.364;18.582;2023-02-04T12:49:25;2.85;;;0.70;;
48363;SDS011;34170;54.364;18.582;2023-02-04T12:51:52;6.35;;;1.00;;
48363;SDS011;34170;54.364;18.582;2023-02-04T12:54:24;3.38;;;1.02;;
48363;SDS011;34170;54.364;18.582;2023-02-04T12:56:51;3.80;;;0.90;;
48363;SDS011;34170;54.364;18.582;2023-02-04T12:59:19;2.20;;;0.65;;
48363;SDS011;34170;54.364;18.582;2023-02-04T13:01:46;5.65;;;1.40;;
48363;SDS011;34170;54.364;18.582;2023-02-04T13:04:14;3.92;;;1.02;;
48363;SDS011;34170;54.364;18.582;2023-02-04T13:06:41;2.08;;;0.70;;
48363;SDS011;34170;54.364;18.582;2023-02-04T13:09:09;3.03;;;1.05;;
48363;SDS011;34170;54.364;18.582;2023-02-04T13:11:36;3.90;;;0.70;;
48363;SDS011;34170;54.364;18.582;2023-02-04T13:14:04;5.45;;;0.88;;
48363;SDS011;34170;54.364;18.582;2023-02-04T13:16:31;4.70;;;0.70;;
48363;SDS011;34170;54.364;18.582;2023-02-04T13:18:59;2.58;;;1.20;;
48363;SDS011;34170;54.364;18.582;2023-02-04T13:21:26;1.63;;;0.63;;
48363;SDS011;34170;54.364;18.582;2023-02-04T13:23:54;2.55;;;0.82;;
48363;SDS011;34170;54.364;18.582;2023-02-04T13:26:23;3.63;;;1.10;;
48363;SDS011;34170;54.364;18.582;2023-02-04T13:28:50;5.28;;;1.30;;
48363;SDS011;34170;54.364;18.582;2023-02-04T13:31:18;4.72;;;1.70;;
48363;SDS011;34170;54.364;18.582;2023-02-04T13:33:45;4.13;;;1.20;;
48363;SDS011;34170;54.364;18.582;2023-02-04T13:36:12;2.47;;;0.93;;
48363;SDS011;34170;54.364;18.582;2023-02-04T13:38:40;4.97;;;1.60;;
48363;SDS011;34170;54.364;18.582;2023-02-04T13:41:07;7.05;;;1.40;;
48363;SDS011;34170;54.364;18.582;2023-02-04T13:43:35;1.77;;;1.05;;
48363;SDS011;34170;54.364;18.582;2023-02-04T13:46:02;3.45;;;1.02;;
48363;SDS011;34170;54.364;18.582;2023-02-04T13:48:31;2.63;;;1.00;;
48363;SDS011;34170;54.364;18.582;2023-02-04T13:50:59;3.17;;;1.10;;
48363;SDS011;34170;54.364;18.582;2023-02-04T13:53:26;1.73;;;1.00;;
48363;SDS011;34170;54.364;18.582;2023-02-04T13:55:56;2.55;;;1.00;;
48363;SDS011;34170;54.364;18.582;2023-02-04T13:58:24;4.43;;;1.10;;
48363;SDS011;34170;54.364;18.582;2023-02-04T14:00:52;2.80;;;0.90;;
48363;SDS011;34170;54.364;18.582;2023-02-04T14:03:23;3.20;;;0.77;;
48363;SDS011;34170;54.364;18.582;2023-02-04T14:05:52;4.38;;;1.25;;
48363;SDS011;34170;54.364;18.582;2023-02-04T14:08:20;2.92;;;1.00;;
48363;SDS011;34170;54.364;18.582;2023-02-04T14:10:48;3.20;;;1.20;;
48363;SDS011;34170;54.364;18.582;2023-02-04T14:13:15;5.00;;;1.40;;
48363;SDS011;34170;54.364;18.582;2023-02-04T14:15:43;4.72;;;1.20;;
48363;SDS011;34170;54.364;18.582;2023-02-04T14:18:10;6.88;;;1.70;;
48363;SDS011;34170;54.364;18.582;2023-02-04T14:20:38;3.22;;;1.50;;
48363;SDS011;34170;54.364;18.582;2023-02-04T14:23:05;4.75;;;1.92;;
48363;SDS011;34170;54.364;18.582;2023-02-04T14:25:33;2.88;;;1.40;;
48363;SDS011;34170;54.364;18.582;2023-02-04T14:28:00;4.45;;;1.52;;
48363;SDS011;34170;54.364;18.582;2023-02-04T14:30:28;3.92;;;1.60;;
48363;SDS011;34170;54.364;18.582;2023-02-04T14:32:58;2.15;;;1.15;;
48363;SDS011;34170;54.364;18.582;2023-02-04T14:35:25;3.03;;;1.00;;
48363;SDS011;34170;54.364;18.582;2023-02-04T14:37:53;2.58;;;1.23;;
48363;SDS011;34170;54.364;18.582;2023-02-04T14:40:20;1.88;;;1.20;;
48363;SDS011;34170;54.364;18.582;2023-02-04T14:42:48;3.60;;;1.35;;
48363;SDS011;34170;54.364;18.582;2023-02-04T14:45:15;3.38;;;1.40;;
48363;SDS011;34170;54.364;18.582;2023-02-04T14:47:43;4.72;;;1.20;;
48363;SDS011;34170;54.364;18.582;2023-02-04T14:50:12;5.10;;;1.42;;
48363;SDS011;34170;54.364;18.582;2023-02-04T14:52:42;4.63;;;1.42;;
48363;SDS011;34170;54.364;18.582;2023-02-04T14:55:09;2.90;;;1.00;;
48363;SDS011;34170;54.364;18.582;2023-02-04T14:57:39;8.07;;;1.63;;
48363;SDS011;34170;54.364;18.582;2023-02-04T15:00:06;5.40;;;1.42;;
48363;SDS011;34170;54.364;18.582;2023-02-04T15:02:34;5.18;;;1.20;;
48363;SDS011;34170;54.364;18.582;2023-02-04T15:05:02;6.18;;;1.50;;
48363;SDS011;34170;54.364;18.582;2023-02-04T15:07:30;6.93;;;1.33;;